Flight Track Log - Related Links

Times and Time Zones

All times are in EDT time to prevent confusion due to time zone crossing. See the N779NC flight status page for this flight to view local times or setup timezone preferences in your user account.

Time Position Orientation Groundspeed Altitude Reporting Facility
EDT Latitude Longitude Course Direction KTS MPH feet Rate Location/Type
Mon 01:46:52 PM 33.6519 -84.3831 100° East 408 470 2,600  Level Atlanta Center
Mon 01:47:36 PM 33.6667 -84.3333 70° East 250 288 3,600 2,192 Climbing Atlanta TRACON
Mon 01:48:36 PM 33.7000 -84.2500 64° Northeast 271 312 6,400 2,515 Climbing Atlanta TRACON
Mon 01:49:52 PM 33.7044 -84.1236 88° East 309 356 9,300 1,853 Climbing Atlanta Center
Mon 01:50:52 PM 33.6858 -84.0264 103° East 301 346 10,600 1,500 Climbing Atlanta Center
Mon 01:51:00 PM 33.7155 -83.6538 85° East  Level Estimated
Mon 01:51:52 PM 33.6586 -83.9039 105° East 339 390 12,300  Level Atlanta Center
Mon 01:52:00 PM 33.6958 -83.5259 100° East  Level FlightAware Approximate
Mon 01:52:52 PM 33.6667 -83.7792 86° East 371 427 14,200  Level Atlanta Center
Mon 01:53:52 PM 33.6831 -83.6419 82° East 400 460 16,100 1,450 Climbing Atlanta Center
Mon 01:54:52 PM 33.6950 -83.4969 84° East 426 490 17,100 1,200 Climbing Atlanta Center
Mon 01:56:52 PM 33.7308 -83.2144 81° East 449 517 19,700 1,300 Climbing Atlanta Center
Mon 01:57:52 PM 33.7506 -83.0569 81° East 467 537 21,000 1,250 Climbing Atlanta Center
Mon 01:58:52 PM 33.7722 -82.9017 80° East 467 537 22,200 1,000 Climbing Atlanta Center
Mon 01:59:52 PM 33.7894 -82.7414 83° East 480 552 23,000 267 Climbing Atlanta Center
Mon 02:01:00 PM 33.7986 -82.6482 84° East  Level Estimated
Mon 02:01:52 PM 33.8169 -82.4136 84° East 486 559 23,000  Level Atlanta Center
Mon 02:03:39 PM 33.8319 -82.1050 87° East 535 616 20,100 -2,192 Descending Jacksonville Center
Mon 02:04:39 PM 33.8286 -81.9550 91° East 484 557 16,900 -3,900 Descending Jacksonville Center
Mon 02:05:39 PM 33.8339 -81.8150 87° East 439 505 12,300 -3,300 Descending Jacksonville Center
Mon 02:06:39 PM 33.8411 -81.6847 86° East 411 473 10,300 -1,300 Descending Jacksonville Center
Mon 02:07:39 PM 33.8608 -81.5744 78° East 345 397 9,700 -950 Descending Jacksonville Center
Mon 02:08:39 PM 33.9269 -81.5111 38° Northeast 307 353 8,400 -1,438 Descending Jacksonville Center
Mon 02:09:40 PM 33.9886 -81.4400 44° Northeast 296 341 6,800 -1,950 Descending Jacksonville Center
Mon 02:10:39 PM 33.9939 -81.3497 86° East 274 315 4,500 -2,050 Descending Jacksonville Center
Mon 02:11:40 PM 33.9742 -81.2697 107° East 252 290 2,700 -1,350 Descending Jacksonville Center
Mon 02:12:39 PM 33.9692 -81.1997 95° East 246 283 1,800 -915 Descending Jacksonville Center

Login

Don't have an account? Register now (free) for customized features, flight alerts, and more!